sensor_id;sensor_type;location;lat;lon;timestamp;pressure;altitude;pressure_sealevel;temperature;humidity
44934;BME280;30667;43.614;1.442;2023-02-12T00:01:36;101612.06;;;4.76;100.00
44934;BME280;30667;43.614;1.442;2023-02-12T00:04:02;101614.09;;;4.73;100.00
44934;BME280;30667;43.614;1.442;2023-02-12T00:06:27;101617.81;;;4.72;100.00
44934;BME280;30667;43.614;1.442;2023-02-12T00:08:54;101608.75;;;4.73;100.00
44934;BME280;30667;43.614;1.442;2023-02-12T00:11:23;101610.81;;;4.71;100.00
44934;BME280;30667;43.614;1.442;2023-02-12T00:13:49;101619.03;;;4.70;100.00
44934;BME280;30667;43.614;1.442;2023-02-12T00:16:18;101617.78;;;4.66;100.00
44934;BME280;30667;43.614;1.442;2023-02-12T00:18:43;101611.38;;;4.60;100.00
44934;BME280;30667;43.614;1.442;2023-02-12T00:21:09;101614.06;;;4.67;100.00
44934;BME280;30667;43.614;1.442;2023-02-12T00:23:37;101617.19;;;4.70;100.00
44934;BME280;30667;43.614;1.442;2023-02-12T00:26:08;101610.81;;;4.71;100.00
44934;BME280;30667;43.614;1.442;2023-02-12T00:28:34;101601.53;;;4.74;100.00
44934;BME280;30667;43.614;1.442;2023-02-12T00:31:08;101600.06;;;4.71;100.00
44934;BME280;30667;43.614;1.442;2023-02-12T00:33:34;101604.63;;;4.71;100.00
44934;BME280;30667;43.614;1.442;2023-02-12T00:35:59;101602.34;;;4.68;100.00
44934;BME280;30667;43.614;1.442;2023-02-12T00:38:25;101599.84;;;4.66;100.00
44934;BME280;30667;43.614;1.442;2023-02-12T00:40:50;101595.09;;;4.68;100.00
44934;BME280;30667;43.614;1.442;2023-02-12T00:43:16;101599.22;;;4.64;100.00
44934;BME280;30667;43.614;1.442;2023-02-12T00:45:43;101596.94;;;4.61;100.00
44934;BME280;30667;43.614;1.442;2023-02-12T00:48:09;101593.63;;;4.59;100.00
44934;BME280;30667;43.614;1.442;2023-02-12T00:50:34;101600.22;;;4.57;100.00
44934;BME280;30667;43.614;1.442;2023-02-12T00:53:00;101594.84;;;4.57;100.00
44934;BME280;30667;43.614;1.442;2023-02-12T00:55:25;101589.09;;;4.60;100.00
44934;BME280;30667;43.614;1.442;2023-02-12T00:57:50;101583.16;;;4.64;100.00
44934;BME280;30667;43.614;1.442;2023-02-12T01:00:16;101582.31;;;4.64;100.00
44934;BME280;30667;43.614;1.442;2023-02-12T01:02:42;101587.84;;;4.62;100.00
44934;BME280;30667;43.614;1.442;2023-02-12T01:05:07;101588.50;;;4.64;100.00
44934;BME280;30667;43.614;1.442;2023-02-12T01:07:33;101591.59;;;4.68;100.00
44934;BME280;30667;43.614;1.442;2023-02-12T01:09:58;101582.09;;;4.65;100.00
44934;BME280;30667;43.614;1.442;2023-02-12T01:12:24;101591.41;;;4.69;100.00
44934;BME280;30667;43.614;1.442;2023-02-12T01:14:49;101590.56;;;4.69;100.00
44934;BME280;30667;43.614;1.442;2023-02-12T01:17:14;101587.28;;;4.73;100.00
44934;BME280;30667;43.614;1.442;2023-02-12T01:19:40;101588.94;;;4.75;100.00
44934;BME280;30667;43.614;1.442;2023-02-12T01:22:05;101588.34;;;4.72;100.00
44934;BME280;30667;43.614;1.442;2023-02-12T01:24:31;101588.34;;;4.72;100.00
44934;BME280;30667;43.614;1.442;2023-02-12T01:26:56;101589.97;;;4.73;100.00
44934;BME280;30667;43.614;1.442;2023-02-12T01:29:21;101581.69;;;4.68;100.00
44934;BME280;30667;43.614;1.442;2023-02-12T01:31:47;101587.47;;;4.65;100.00
44934;BME280;30667;43.614;1.442;2023-02-12T01:34:12;101590.53;;;4.62;100.00
44934;BME280;30667;43.614;1.442;2023-02-12T01:36:38;101592.38;;;4.55;100.00
44934;BME280;30667;43.614;1.442;2023-02-12T01:39:05;101599.97;;;4.51;100.00
44934;BME280;30667;43.614;1.442;2023-02-12T01:41:34;101600.78;;;4.45;100.00
44934;BME280;30667;43.614;1.442;2023-02-12T01:44:20;101597.84;;;4.40;100.00
44934;BME280;30667;43.614;1.442;2023-02-12T01:46:48;101596.22;;;4.39;100.00
44934;BME280;30667;43.614;1.442;2023-02-12T01:49:19;101592.88;;;4.37;100.00
44934;BME280;30667;43.614;1.442;2023-02-12T01:51:50;101594.31;;;4.33;100.00
44934;BME280;30667;43.614;1.442;2023-02-12T01:54:19;101588.53;;;4.29;100.00
44934;BME280;30667;43.614;1.442;2023-02-12T01:56:46;101586.28;;;4.33;100.00
44934;BME280;30667;43.614;1.442;2023-02-12T01:59:12;101589.78;;;4.33;100.00
44934;BME280;30667;43.614;1.442;2023-02-12T02:01:38;101591.84;;;4.31;100.00
44934;BME280;30667;43.614;1.442;2023-02-12T02:04:08;101588.91;;;4.26;100.00
44934;BME280;30667;43.614;1.442;2023-02-12T02:06:39;101580.63;;;4.21;100.00
44934;BME280;30667;43.614;1.442;2023-02-12T02:09:07;101583.91;;;4.16;100.00
44934;BME280;30667;43.614;1.442;2023-02-12T02:11:33;101588.44;;;4.16;100.00
44934;BME280;30667;43.614;1.442;2023-02-12T02:14:17;101576.66;;;4.10;100.00
44934;BME280;30667;43.614;1.442;2023-02-12T02:39:29;101567.94;;;4.02;100.00
44934;BME280;30667;43.614;1.442;2023-02-12T02:42:03;101562.56;;;4.02;100.00
44934;BME280;30667;43.614;1.442;2023-02-12T02:44:45;101556.59;;;3.99;100.00
44934;BME280;30667;43.614;1.442;2023-02-12T02:47:14;101553.72;;;4.01;100.00
44934;BME280;30667;43.614;1.442;2023-02-12T02:49:52;101551.25;;;3.99;100.00
44934;BME280;30667;43.614;1.442;2023-02-12T02:52:24;101549.38;;;4.00;100.00
44934;BME280;30667;43.614;1.442;2023-02-12T02:54:56;101553.97;;;4.06;100.00
44934;BME280;30667;43.614;1.442;2023-02-12T02:57:27;101540.91;;;3.96;100.00
44934;BME280;30667;43.614;1.442;2023-02-12T03:00:00;101540.50;;;3.93;100.00
44934;BME280;30667;43.614;1.442;2023-02-12T03:02:34;101544.00;;;3.93;100.00
44934;BME280;30667;43.614;1.442;2023-02-12T03:05:05;101542.72;;;3.89;100.00
44934;BME280;30667;43.614;1.442;2023-02-12T03:07:41;101539.03;;;3.90;100.00
44934;BME280;30667;43.614;1.442;2023-02-12T03:10:19;101545.19;;;3.91;100.00
44934;BME280;30667;43.614;1.442;2023-02-12T03:15:43;101538.16;;;3.83;100.00
44934;BME280;30667;43.614;1.442;2023-02-12T03:18:16;101542.28;;;3.86;100.00
44934;BME280;30667;43.614;1.442;2023-02-12T03:20:50;101541.06;;;3.88;100.00
44934;BME280;30667;43.614;1.442;2023-02-12T03:23:24;101550.75;;;3.89;100.00
44934;BME280;30667;43.614;1.442;2023-02-12T03:26:03;101544.38;;;3.90;100.00
44934;BME280;30667;43.614;1.442;2023-02-12T03:28:31;101545.00;;;3.92;100.00
44934;BME280;30667;43.614;1.442;2023-02-12T03:36:36;101560.63;;;3.89;100.00
44934;BME280;30667;43.614;1.442;2023-02-12T03:39:19;101551.78;;;3.88;100.00
44934;BME280;30667;43.614;1.442;2023-02-12T03:42:15;101545.16;;;3.84;100.00
44934;BME280;30667;43.614;1.442;2023-02-12T03:47:48;101547.59;;;3.79;100.00
44934;BME280;30667;43.614;1.442;2023-02-12T03:50:44;101537.91;;;3.78;100.00
44934;BME280;30667;43.614;1.442;2023-02-12T03:53:11;101536.25;;;3.77;100.00
44934;BME280;30667;43.614;1.442;2023-02-12T03:55:41;101531.94;;;3.76;100.00
44934;BME280;30667;43.614;1.442;2023-02-12T03:58:15;101535.00;;;3.73;100.00
44934;BME280;30667;43.614;1.442;2023-02-12T04:00:43;101530.88;;;3.70;100.00
44934;BME280;30667;43.614;1.442;2023-02-12T04:03:08;101534.94;;;3.66;100.00
44934;BME280;30667;43.614;1.442;2023-02-12T04:05:33;101534.75;;;3.68;100.00
44934;BME280;30667;43.614;1.442;2023-02-12T04:08:01;101534.94;;;3.66;100.00
44934;BME280;30667;43.614;1.442;2023-02-12T04:11:03;101531.09;;;3.75;100.00
44934;BME280;30667;43.614;1.442;2023-02-12T04:22:20;101541.31;;;3.65;100.00
44934;BME280;30667;43.614;1.442;2023-02-12T04:27:40;101556.75;;;3.63;100.00
44934;BME280;30667;43.614;1.442;2023-02-12T04:32:49;101556.13;;;3.61;100.00
44934;BME280;30667;43.614;1.442;2023-02-12T04:35:29;101546.03;;;3.63;100.00
44934;BME280;30667;43.614;1.442;2023-02-12T04:38:03;101541.88;;;3.60;100.00
44934;BME280;30667;43.614;1.442;2023-02-12T04:40:31;101546.22;;;3.61;100.00
44934;BME280;30667;43.614;1.442;2023-02-12T04:42:56;101555.47;;;3.59;100.00
44934;BME280;30667;43.614;1.442;2023-02-12T04:45:27;101551.16;;;3.58;100.00
44934;BME280;30667;43.614;1.442;2023-02-12T04:47:54;101548.84;;;3.55;100.00
44934;BME280;30667;43.614;1.442;2023-02-12T04:50:20;101552.78;;;3.59;100.00
44934;BME280;30667;43.614;1.442;2023-02-12T04:52:45;101551.34;;;3.56;100.00
44934;BME280;30667;43.614;1.442;2023-02-12T04:55:11;101551.97;;;3.58;100.00
44934;BME280;30667;43.614;1.442;2023-02-12T04:57:36;101557.50;;;3.57;100.00
44934;BME280;30667;43.614;1.442;2023-02-12T05:00:03;101555.03;;;3.55;100.00
44934;BME280;30667;43.614;1.442;2023-02-12T05:02:30;101540.06;;;3.61;100.00
44934;BME280;30667;43.614;1.442;2023-02-12T05:04:57;101549.28;;;3.58;100.00
44934;BME280;30667;43.614;1.442;2023-02-12T05:07:22;101541.69;;;3.62;100.00
44934;BME280;30667;43.614;1.442;2023-02-12T05:09:47;101551.00;;;3.66;100.00
44934;BME280;30667;43.614;1.442;2023-02-12T05:12:13;101545.22;;;3.62;100.00
44934;BME280;30667;43.614;1.442;2023-02-12T05:14:38;101542.16;;;3.66;100.00
44934;BME280;30667;43.614;1.442;2023-02-12T05:17:04;101552.66;;;3.67;100.00
44934;BME280;30667;43.614;1.442;2023-02-12T05:19:29;101543.78;;;3.67;100.00
44934;BME280;30667;43.614;1.442;2023-02-12T05:21:54;101546.94;;;3.70;100.00
44934;BME280;30667;43.614;1.442;2023-02-12T05:24:20;101547.50;;;3.66;100.00
44934;BME280;30667;43.614;1.442;2023-02-12T05:26:47;101545.88;;;3.71;100.00
44934;BME280;30667;43.614;1.442;2023-02-12T05:29:13;101552.06;;;3.72;100.00
44934;BME280;30667;43.614;1.442;2023-02-12T05:31:38;101553.72;;;3.73;100.00
44934;BME280;30667;43.614;1.442;2023-02-12T05:34:05;101548.56;;;3.71;100.00
44934;BME280;30667;43.614;1.442;2023-02-12T05:36:31;101555.19;;;3.75;100.00
44934;BME280;30667;43.614;1.442;2023-02-12T05:38:58;101556.78;;;3.70;100.00
44934;BME280;30667;43.614;1.442;2023-02-12T05:41:24;101555.72;;;3.64;100.00
44934;BME280;30667;43.614;1.442;2023-02-12T05:43:50;101558.78;;;3.61;100.00
44934;BME280;30667;43.614;1.442;2023-02-12T05:46:20;101558.13;;;3.59;100.00
44934;BME280;30667;43.614;1.442;2023-02-12T05:48:46;101564.09;;;3.54;100.00
44934;BME280;30667;43.614;1.442;2023-02-12T05:51:17;101559.94;;;3.52;100.00
44934;BME280;30667;43.614;1.442;2023-02-12T05:53:44;101556.56;;;3.43;100.00
44934;BME280;30667;43.614;1.442;2023-02-12T05:58:39;101563.97;;;3.41;100.00
44934;BME280;30667;43.614;1.442;2023-02-12T06:01:11;101575.69;;;3.40;100.00
44934;BME280;30667;43.614;1.442;2023-02-12T06:03:37;101566.31;;;3.51;100.00
44934;BME280;30667;43.614;1.442;2023-02-12T06:06:03;101569.44;;;3.54;100.00
44934;BME280;30667;43.614;1.442;2023-02-12T06:08:28;101572.50;;;3.51;100.00
44934;BME280;30667;43.614;1.442;2023-02-12T06:10:53;101568.53;;;3.47;100.00
44934;BME280;30667;43.614;1.442;2023-02-12T06:13:19;101569.31;;;3.41;100.00
44934;BME280;30667;43.614;1.442;2023-02-12T06:15:44;101569.75;;;3.44;100.00
44934;BME280;30667;43.614;1.442;2023-02-12T06:18:10;101567.97;;;3.52;100.00
44934;BME280;30667;43.614;1.442;2023-02-12T06:20:37;101565.47;;;3.50;100.00
44934;BME280;30667;43.614;1.442;2023-02-12T06:23:03;101557.03;;;3.47;100.00
44934;BME280;30667;43.614;1.442;2023-02-12T06:25:28;101570.91;;;3.35;100.00
44934;BME280;30667;43.614;1.442;2023-02-12T06:27:54;101569.63;;;3.31;100.00
44934;BME280;30667;43.614;1.442;2023-02-12T06:30:19;101570.72;;;3.37;100.00
44934;BME280;30667;43.614;1.442;2023-02-12T06:32:48;101579.56;;;3.37;100.00
44934;BME280;30667;43.614;1.442;2023-02-12T06:35:14;101570.44;;;3.32;100.00
44934;BME280;30667;43.614;1.442;2023-02-12T06:37:39;101572.88;;;3.26;100.00
44934;BME280;30667;43.614;1.442;2023-02-12T06:40:05;101572.25;;;3.24;100.00
44934;BME280;30667;43.614;1.442;2023-02-12T06:42:31;101575.31;;;3.21;100.00
44934;BME280;30667;43.614;1.442;2023-02-12T06:44:56;101578.97;;;3.20;100.00
44934;BME280;30667;43.614;1.442;2023-02-12T06:47:21;101578.34;;;3.18;100.00
44934;BME280;30667;43.614;1.442;2023-02-12T06:49:47;101582.03;;;3.17;100.00
44934;BME280;30667;43.614;1.442;2023-02-12T06:52:12;101576.69;;;3.17;100.00
44934;BME280;30667;43.614;1.442;2023-02-12T06:54:38;101570.00;;;3.28;100.00
44934;BME280;30667;43.614;1.442;2023-02-12T06:57:03;101574.91;;;3.24;100.00
44934;BME280;30667;43.614;1.442;2023-02-12T06:59:29;101571.81;;;3.21;100.00
44934;BME280;30667;43.614;1.442;2023-02-12T07:01:54;101576.69;;;3.17;100.00
44934;BME280;30667;43.614;1.442;2023-02-12T07:04:20;101576.06;;;3.15;100.00
44934;BME280;30667;43.614;1.442;2023-02-12T07:06:45;101576.63;;;3.11;100.00
44934;BME280;30667;43.614;1.442;2023-02-12T07:09:11;101583.81;;;3.10;100.00
44934;BME280;30667;43.614;1.442;2023-02-12T07:11:37;101591.41;;;3.06;100.00
44934;BME280;30667;43.614;1.442;2023-02-12T07:14:02;101598.00;;;3.11;100.00
44934;BME280;30667;43.614;1.442;2023-02-12T07:16:28;101601.31;;;3.13;100.00
44934;BME280;30667;43.614;1.442;2023-02-12T07:18:53;101606.22;;;3.09;100.00
44934;BME280;30667;43.614;1.442;2023-02-12T07:21:19;101606.66;;;3.13;100.00
44934;BME280;30667;43.614;1.442;2023-02-12T07:23:47;101601.63;;;3.03;100.00
44934;BME280;30667;43.614;1.442;2023-02-12T07:26:13;101614.00;;;3.04;100.00
44934;BME280;30667;43.614;1.442;2023-02-12T07:28:39;101615.47;;;3.06;100.00
44934;BME280;30667;43.614;1.442;2023-02-12T07:31:07;101611.38;;;3.11;100.00
44934;BME280;30667;43.614;1.442;2023-02-12T07:33:53;101618.34;;;3.05;100.00
44934;BME280;30667;43.614;1.442;2023-02-12T07:36:19;101609.75;;;2.95;100.00
44934;BME280;30667;43.614;1.442;2023-02-12T07:38:45;101617.53;;;2.89;100.00
44934;BME280;30667;43.614;1.442;2023-02-12T07:43:43;101618.47;;;2.82;100.00
44934;BME280;30667;43.614;1.442;2023-02-12T07:46:17;101615.16;;;2.80;100.00
44934;BME280;30667;43.614;1.442;2023-02-12T07:48:44;101608.41;;;2.84;100.00
44934;BME280;30667;43.614;1.442;2023-02-12T07:51:15;101609.56;;;2.96;100.00
44934;BME280;30667;43.614;1.442;2023-02-12T07:53:43;101609.75;;;3.09;100.00
44934;BME280;30667;43.614;1.442;2023-02-12T07:56:11;101608.72;;;3.11;100.00
44934;BME280;30667;43.614;1.442;2023-02-12T07:58:37;101610.19;;;3.13;100.00
44934;BME280;30667;43.614;1.442;2023-02-12T08:01:24;101612.88;;;3.35;100.00
44934;BME280;30667;43.614;1.442;2023-02-12T08:03:56;101614.78;;;3.41;100.00
44934;BME280;30667;43.614;1.442;2023-02-12T08:06:25;101619.56;;;3.45;100.00
44934;BME280;30667;43.614;1.442;2023-02-12T08:08:57;101614.75;;;3.56;100.00
44934;BME280;30667;43.614;1.442;2023-02-12T08:11:23;101617.25;;;3.86;100.00
44934;BME280;30667;43.614;1.442;2023-02-12T08:13:50;101619.53;;;4.45;100.00
44934;BME280;30667;43.614;1.442;2023-02-12T08:16:18;101622.50;;;4.29;100.00
44934;BME280;30667;43.614;1.442;2023-02-12T08:18:45;101619.41;;;4.25;100.00
44934;BME280;30667;43.614;1.442;2023-02-12T08:21:12;101620.22;;;4.26;100.00
44934;BME280;30667;43.614;1.442;2023-02-12T08:23:39;101624.75;;;4.25;100.00
44934;BME280;30667;43.614;1.442;2023-02-12T08:28:33;101632.22;;;4.30;100.00
44934;BME280;30667;43.614;1.442;2023-02-12T08:31:01;101626.91;;;4.36;100.00
44934;BME280;30667;43.614;1.442;2023-02-12T08:33:27;101640.53;;;4.42;100.00
44934;BME280;30667;43.614;1.442;2023-02-12T08:36:04;101631.47;;;4.43;100.00
44934;BME280;30667;43.614;1.442;2023-02-12T08:38:31;101630.50;;;4.50;100.00
44934;BME280;30667;43.614;1.442;2023-02-12T08:41:00;101636.47;;;4.52;100.00
44934;BME280;30667;43.614;1.442;2023-02-12T08:43:26;101642.75;;;4.66;100.00
44934;BME280;30667;43.614;1.442;2023-02-12T08:45:52;101641.50;;;4.69;100.00
44934;BME280;30667;43.614;1.442;2023-02-12T08:48:17;101636.59;;;4.72;100.00
44934;BME280;30667;43.614;1.442;2023-02-12T08:50:45;101634.13;;;4.78;100.00
44934;BME280;30667;43.614;1.442;2023-02-12T08:53:11;101633.75;;;4.81;100.00
44934;BME280;30667;43.614;1.442;2023-02-12T08:55:36;101635.63;;;4.87;100.00
44934;BME280;30667;43.614;1.442;2023-02-12T08:58:02;101629.88;;;4.90;100.00
44934;BME280;30667;43.614;1.442;2023-02-12T09:00:28;101635.47;;;4.95;100.00
44934;BME280;30667;43.614;1.442;2023-02-12T09:02:53;101634.66;;;5.01;100.00
44934;BME280;30667;43.614;1.442;2023-02-12T09:05:19;101631.38;;;5.06;100.00
44934;BME280;30667;43.614;1.442;2023-02-12T09:07:44;101638.81;;;5.11;100.00
44934;BME280;30667;43.614;1.442;2023-02-12T09:10:09;101638.84;;;5.24;100.00
44934;BME280;30667;43.614;1.442;2023-02-12T09:12:35;101639.06;;;5.29;100.00
44934;BME280;30667;43.614;1.442;2023-02-12T09:15:00;101638.66;;;5.32;100.00
44934;BME280;30667;43.614;1.442;2023-02-12T09:17:26;101642.22;;;5.39;100.00
44934;BME280;30667;43.614;1.442;2023-02-12T09:19:53;101641.16;;;5.47;100.00
44934;BME280;30667;43.614;1.442;2023-02-12T09:22:18;101639.13;;;5.56;100.00
44934;BME280;30667;43.614;1.442;2023-02-12T09:24:44;101635.22;;;5.65;100.00
44934;BME280;30667;43.614;1.442;2023-02-12T09:27:09;101638.94;;;5.71;100.00
44934;BME280;30667;43.614;1.442;2023-02-12T09:29:34;101638.31;;;5.75;100.00
44934;BME280;30667;43.614;1.442;2023-02-12T09:32:00;101641.00;;;5.82;100.00
44934;BME280;30667;43.614;1.442;2023-02-12T09:34:29;101633.19;;;5.94;100.00
44934;BME280;30667;43.614;1.442;2023-02-12T09:36:55;101627.22;;;5.98;100.00
44934;BME280;30667;43.614;1.442;2023-02-12T09:39:20;101629.91;;;6.05;100.00
44934;BME280;30667;43.614;1.442;2023-02-12T09:42:07;101622.22;;;6.22;100.00
44934;BME280;30667;43.614;1.442;2023-02-12T09:44:48;101627.41;;;6.30;100.00
44934;BME280;30667;43.614;1.442;2023-02-12T09:51:02;101625.03;;;6.54;100.00
44934;BME280;30667;43.614;1.442;2023-02-12T09:53:29;101621.94;;;6.64;100.00
44934;BME280;30667;43.614;1.442;2023-02-12T09:55:56;101623.72;;;6.83;100.00
44934;BME280;30667;43.614;1.442;2023-02-12T09:58:41;101618.94;;;6.85;100.00
44934;BME280;30667;43.614;1.442;2023-02-12T10:01:14;101621.19;;;6.95;100.00
44934;BME280;30667;43.614;1.442;2023-02-12T10:03:41;101616.81;;;7.01;100.00
44934;BME280;30667;43.614;1.442;2023-02-12T10:06:13;101617.44;;;7.03;100.00
44934;BME280;30667;43.614;1.442;2023-02-12T10:22:56;101613.63;;;7.49;100.00
44934;BME280;30667;43.614;1.442;2023-02-12T10:25:19;101624.16;;;7.57;100.00
44934;BME280;30667;43.614;1.442;2023-02-12T10:27:50;101625.09;;;7.70;100.00
44934;BME280;30667;43.614;1.442;2023-02-12T10:32:47;101624.56;;;7.86;100.00
44934;BME280;30667;43.614;1.442;2023-02-12T10:35:17;101623.50;;;7.87;100.00
44934;BME280;30667;43.614;1.442;2023-02-12T10:37:49;101617.13;;;7.81;100.00
44934;BME280;30667;43.614;1.442;2023-02-12T10:40:17;101611.84;;;7.93;100.00
44934;BME280;30667;43.614;1.442;2023-02-12T10:42:47;101603.16;;;7.91;100.00
44934;BME280;30667;43.614;1.442;2023-02-12T10:45:17;101601.16;;;8.05;100.00
44934;BME280;30667;43.614;1.442;2023-02-12T10:47:43;101600.50;;;8.10;100.00
44934;BME280;30667;43.614;1.442;2023-02-12T10:50:21;101603.19;;;8.10;100.00
44934;BME280;30667;43.614;1.442;2023-02-12T10:52:55;101601.09;;;8.12;100.00
44934;BME280;30667;43.614;1.442;2023-02-12T10:55:29;101604.34;;;8.21;100.00
44934;BME280;30667;43.614;1.442;2023-02-12T10:57:56;101605.00;;;8.16;100.00
44934;BME280;30667;43.614;1.442;2023-02-12T11:05:34;101583.78;;;8.45;100.00
44934;BME280;30667;43.614;1.442;2023-02-12T11:08:00;101585.16;;;8.54;100.00
44934;BME280;30667;43.614;1.442;2023-02-12T11:10:39;101587.00;;;8.53;100.00
44934;BME280;30667;43.614;1.442;2023-02-12T11:13:22;101580.88;;;8.46;100.00
44934;BME280;30667;43.614;1.442;2023-02-12T11:15:50;101579.00;;;8.47;100.00
44934;BME280;30667;43.614;1.442;2023-02-12T11:18:26;101574.22;;;8.49;100.00
44934;BME280;30667;43.614;1.442;2023-02-12T11:21:01;101568.13;;;8.53;100.00
44934;BME280;30667;43.614;1.442;2023-02-12T11:23:35;101567.53;;;8.51;100.00
44934;BME280;30667;43.614;1.442;2023-02-12T11:28:57;101575.16;;;8.73;100.00
44934;BME280;30667;43.614;1.442;2023-02-12T11:31:24;101568.03;;;8.79;100.00
44934;BME280;30667;43.614;1.442;2023-02-12T11:34:15;101556.06;;;8.75;100.00
44934;BME280;30667;43.614;1.442;2023-02-12T11:36:49;101560.31;;;8.82;100.00
44934;BME280;30667;43.614;1.442;2023-02-12T11:39:31;101555.50;;;8.84;100.00
44934;BME280;30667;43.614;1.442;2023-02-12T11:42:03;101550.09;;;8.84;100.00
44934;BME280;30667;43.614;1.442;2023-02-12T11:44:36;101545.97;;;8.82;100.00
44934;BME280;30667;43.614;1.442;2023-02-12T11:47:09;101541.44;;;8.82;100.00
44934;BME280;30667;43.614;1.442;2023-02-12T11:52:34;101539.47;;;9.01;100.00
44934;BME280;30667;43.614;1.442;2023-02-12T11:55:06;101542.63;;;8.98;100.00
44934;BME280;30667;43.614;1.442;2023-02-12T12:00:15;101534.22;;;9.06;100.00
44934;BME280;30667;43.614;1.442;2023-02-12T12:02:54;101531.88;;;9.10;100.00
44934;BME280;30667;43.614;1.442;2023-02-12T12:05:32;101521.31;;;9.08;99.50
44934;BME280;30667;43.614;1.442;2023-02-12T12:08:03;101517.94;;;9.25;97.98
44934;BME280;30667;43.614;1.442;2023-02-12T12:10:41;101511.03;;;9.29;97.83
44934;BME280;30667;43.614;1.442;2023-02-12T12:13:16;101509.84;;;9.25;100.00
44934;BME280;30667;43.614;1.442;2023-02-12T12:15:45;101504.72;;;9.35;98.09
44934;BME280;30667;43.614;1.442;2023-02-12T12:18:40;101513.03;;;9.34;95.72
44934;BME280;30667;43.614;1.442;2023-02-12T12:21:59;101503.41;;;9.38;95.45
44934;BME280;30667;43.614;1.442;2023-02-12T12:24:44;101500.69;;;9.38;94.65
44934;BME280;30667;43.614;1.442;2023-02-12T12:52:06;101480.41;;;9.71;86.30
44934;BME280;30667;43.614;1.442;2023-02-12T12:57:24;101478.06;;;9.86;83.99
44934;BME280;30667;43.614;1.442;2023-02-12T13:23:53;101461.09;;;10.03;82.62
44934;BME280;30667;43.614;1.442;2023-02-12T13:29:28;101459.19;;;10.03;83.50
44934;BME280;30667;43.614;1.442;2023-02-12T13:32:02;101453.69;;;9.98;89.57
44934;BME280;30667;43.614;1.442;2023-02-12T13:34:30;101447.22;;;9.99;91.41
44934;BME280;30667;43.614;1.442;2023-02-12T13:36:59;101451.78;;;9.98;96.11
44934;BME280;30667;43.614;1.442;2023-02-12T13:45:14;101444.09;;;10.19;80.31
44934;BME280;30667;43.614;1.442;2023-02-12T13:48:14;101441.31;;;10.14;80.62
44934;BME280;30667;43.614;1.442;2023-02-12T13:56:45;101421.44;;;10.08;77.70
44934;BME280;30667;43.614;1.442;2023-02-12T13:59:44;101429.44;;;10.15;76.75
44934;BME280;30667;43.614;1.442;2023-02-12T14:04:41;101425.09;;;10.14;77.86
44934;BME280;30667;43.614;1.442;2023-02-12T14:07:09;101420.09;;;10.23;74.24
44934;BME280;30667;43.614;1.442;2023-02-12T14:09:39;101416.09;;;10.25;73.75
44934;BME280;30667;43.614;1.442;2023-02-12T14:12:30;101416.34;;;10.24;71.49
44934;BME280;30667;43.614;1.442;2023-02-12T14:15:02;101414.44;;;10.24;71.58
44934;BME280;30667;43.614;1.442;2023-02-12T14:27:53;101411.78;;;10.12;85.16
44934;BME280;30667;43.614;1.442;2023-02-12T14:30:29;101420.59;;;10.20;89.60
44934;BME280;30667;43.614;1.442;2023-02-12T14:35:32;101412.56;;;10.36;78.13
44934;BME280;30667;43.614;1.442;2023-02-12T14:38:09;101412.91;;;10.28;80.78
44934;BME280;30667;43.614;1.442;2023-02-12T14:40:49;101416.53;;;10.46;81.15
44934;BME280;30667;43.614;1.442;2023-02-12T14:43:32;101414.22;;;10.38;78.57
44934;BME280;30667;43.614;1.442;2023-02-12T14:48:56;101415.28;;;10.25;75.48
44934;BME280;30667;43.614;1.442;2023-02-12T14:51:50;101411.03;;;10.29;78.97
44934;BME280;30667;43.614;1.442;2023-02-12T14:56:54;101401.50;;;10.38;77.40
44934;BME280;30667;43.614;1.442;2023-02-12T14:59:23;101401.00;;;10.41;73.60
44934;BME280;30667;43.614;1.442;2023-02-12T15:01:50;101405.69;;;10.46;69.09
44934;BME280;30667;43.614;1.442;2023-02-12T15:04:29;101402.50;;;10.49;68.78
44934;BME280;30667;43.614;1.442;2023-02-12T15:06:59;101398.50;;;10.51;68.42
44934;BME280;30667;43.614;1.442;2023-02-12T15:09:36;101401.06;;;10.58;68.03
44934;BME280;30667;43.614;1.442;2023-02-12T15:12:31;101392.34;;;10.56;67.31
44934;BME280;30667;43.614;1.442;2023-02-12T15:15:46;101396.13;;;10.55;68.41
44934;BME280;30667;43.614;1.442;2023-02-12T15:17:55;101408.25;;;10.52;67.63
44934;BME280;30667;43.614;1.442;2023-02-12T15:20:24;101403.56;;;10.48;66.55
44934;BME280;30667;43.614;1.442;2023-02-12T15:22:52;101401.69;;;10.48;65.79
44934;BME280;30667;43.614;1.442;2023-02-12T15:27:53;101404.97;;;10.50;66.68
44934;BME280;30667;43.614;1.442;2023-02-12T15:30:23;101395.72;;;10.63;67.44
44934;BME280;30667;43.614;1.442;2023-02-12T15:32:50;101394.28;;;10.72;68.16
44934;BME280;30667;43.614;1.442;2023-02-12T15:35:28;101394.91;;;10.63;80.23
44934;BME280;30667;43.614;1.442;2023-02-12T15:37:55;101393.25;;;10.62;70.47
44934;BME280;30667;43.614;1.442;2023-02-12T15:40:22;101398.59;;;10.57;70.47
44934;BME280;30667;43.614;1.442;2023-02-12T15:43:02;101401.38;;;10.62;70.52
44934;BME280;30667;43.614;1.442;2023-02-12T15:45:29;101396.38;;;10.53;71.25
44934;BME280;30667;43.614;1.442;2023-02-12T15:48:22;101403.03;;;10.63;70.75
44934;BME280;30667;43.614;1.442;2023-02-12T15:50:56;101408.84;;;10.71;70.85
44934;BME280;30667;43.614;1.442;2023-02-12T15:53:25;101407.72;;;10.67;72.43
44934;BME280;30667;43.614;1.442;2023-02-12T15:55:52;101401.31;;;10.73;70.81
44934;BME280;30667;43.614;1.442;2023-02-12T15:59:03;101404.41;;;10.65;73.02
44934;BME280;30667;43.614;1.442;2023-02-12T16:01:15;101401.22;;;10.68;72.29
44934;BME280;30667;43.614;1.442;2023-02-12T16:03:41;101399.09;;;10.53;75.32
44934;BME280;30667;43.614;1.442;2023-02-12T16:06:09;101400.97;;;10.70;67.11